Time;durP1;ratioP1;P1;durP2;ratioP2;P2;SDS_P1;SDS_P2;PMS_P1;PMS_P2;Temp;Humidity;BMP_temperature;BMP_pressure;BME280_temperature;BME280_humidity;BME280_pressure;Samples;Min_cycle;Max_cycle;Signal;HPM_P1;HPM_P2
2022/10/03 07:35:05;;;;;;;6.68;2.40;;;;;;;;;;5067590;28;20755;-64
2022/10/03 07:41:01;;;;;;;6.97;2.83;;;;;;;;;;5065878;28;20037;-64
2022/10/03 07:43:46;;;;;;;5.30;2.83;;;;;;;;;;5068106;28;20124;-72
2022/10/03 07:46:30;;;;;;;6.78;2.95;;;;;;;;;;5067374;28;20059;-64
2022/10/03 07:49:11;;;;;;;6.70;2.67;;;;;;;;;;5067402;28;20035;-69
2022/10/03 07:51:59;;;;;;;7.57;2.35;;;;;;;;;;5068417;28;20041;-70
2022/10/03 07:54:28;;;;;;;4.82;2.47;;;;;;;;;;5065595;28;20041;-66
2022/10/03 07:56:54;;;;;;;6.65;2.47;;;;;;;;;;5046741;28;20024;-63
2022/10/03 07:59:26;;;;;;;7.13;3.00;;;;;;;;;;5043138;28;20029;-70
2022/10/03 08:02:12;;;;;;;4.68;2.20;;;;;;;;;;5043075;28;20027;-63
2022/10/03 08:05:05;;;;;;;4.28;2.50;;;;;;;;;;5027789;28;20117;-63
2022/10/03 08:07:31;;;;;;;;;;;;;;;;;;5028495;28;20071;-62
2022/10/03 08:09:57;;;;;;;4.80;2.90;;;;;;;;;;5027898;28;19906;-70
2022/10/03 08:12:26;;;;;;;8.00;2.53;;;;;;;;;;5043074;28;20041;-63
2022/10/03 08:14:52;;;;;;;5.40;2.40;;;;;;;;;;5046883;28;20037;-70
2022/10/03 08:17:37;;;;;;;6.65;2.53;;;;;;;;;;5046716;28;20033;-71
2022/10/03 08:20:06;;;;;;;8.38;2.28;;;;;;;;;;5047110;28;20025;-66
2022/10/03 08:22:44;;;;;;;5.35;2.50;;;;;;;;;;5046983;28;20032;-63
2022/10/03 08:25:10;;;;;;;5.30;2.13;;;;;;;;;;5047268;28;20025;-62
2022/10/03 08:27:39;;;;;;;5.88;2.25;;;;;;;;;;5046862;28;20053;-71
2022/10/03 08:30:05;;;;;;;6.32;2.00;;;;;;;;;;5047413;28;20040;-65
2022/10/03 08:32:50;;;;;;;5.78;2.35;;;;;;;;;;5037296;28;20478;-66
2022/10/03 08:35:29;;;;;;;6.85;2.08;;;;;;;;;;5042841;28;20025;-62
2022/10/03 08:38:07;;;;;;;7.15;2.33;;;;;;;;;;5046846;28;20033;-62
2022/10/03 08:40:36;;;;;;;4.75;1.80;;;;;;;;;;5044403;28;20030;-71
2022/10/03 08:43:08;;;;;;;6.07;1.80;;;;;;;;;;5043534;28;20032;-63
2022/10/03 08:45:42;;;;;;;5.95;1.85;;;;;;;;;;5036861;28;20025;-64
2022/10/03 08:48:21;;;;;;;5.88;2.03;;;;;;;;;;5033719;28;20487;-66
2022/10/03 08:50:57;;;;;;;4.78;1.48;;;;;;;;;;5033501;28;20024;-70
2022/10/03 08:53:45;;;;;;;5.55;1.70;;;;;;;;;;5033391;28;20041;-72
2022/10/03 08:56:31;;;;;;;7.15;2.28;;;;;;;;;;5028386;28;20061;-69
2022/10/03 08:59:08;;;;;;;4.70;1.50;;;;;;;;;;5018138;28;20053;-64
2022/10/03 09:01:40;;;;;;;3.97;1.80;;;;;;;;;;5031542;28;20026;-72
2022/10/03 09:04:06;;;;;;;6.55;1.58;;;;;;;;;;5015723;28;20437;-71
2022/10/03 09:06:50;;;;;;;8.25;1.90;;;;;;;;;;5019001;28;20025;-71
2022/10/03 09:09:16;;;;;;;4.93;1.70;;;;;;;;;;5031007;28;20040;-72
2022/10/03 09:11:53;;;;;;;3.65;1.60;;;;;;;;;;5022975;28;20018;-67
2022/10/03 09:14:26;;;;;;;6.18;2.25;;;;;;;;;;5022950;28;20026;-69
2022/10/03 09:17:09;;;;;;;5.60;1.80;;;;;;;;;;5027909;28;20022;-71
2022/10/03 09:19:38;;;;;;;5.97;2.38;;;;;;;;;;5031129;28;20033;-64
2022/10/03 09:22:23;;;;;;;7.90;2.13;;;;;;;;;;5031880;28;20028;-71
2022/10/03 09:25:12;;;;;;;5.95;2.00;;;;;;;;;;5030135;28;20032;-69
2022/10/03 09:27:42;;;;;;;4.47;1.90;;;;;;;;;;5030406;28;20021;-65
2022/10/03 09:30:15;;;;;;;3.47;1.80;;;;;;;;;;5032595;28;20420;-63
2022/10/03 09:33:00;;;;;;;6.88;1.73;;;;;;;;;;5032506;28;20109;-65
2022/10/03 09:35:38;;;;;;;6.55;1.88;;;;;;;;;;5032478;28;20184;-69
2022/10/03 09:38:16;;;;;;;9.40;2.63;;;;;;;;;;5031418;28;20033;-63
2022/10/03 09:40:42;;;;;;;13.95;2.40;;;;;;;;;;5032252;28;20116;-63
2022/10/03 09:43:08;;;;;;;8.90;1.90;;;;;;;;;;5032337;28;20026;-63
2022/10/03 09:45:53;;;;;;;3.63;1.58;;;;;;;;;;5032298;28;20021;-63
2022/10/03 09:48:31;;;;;;;3.55;1.67;;;;;;;;;;5031572;28;20018;-63
2022/10/03 09:51:00;;;;;;;11.20;2.35;;;;;;;;;;5032155;28;20028;-66
2022/10/03 09:53:28;;;;;;;12.18;1.83;;;;;;;;;;5031971;28;20041;-69
2022/10/03 09:56:13;;;;;;;4.35;1.70;;;;;;;;;;5031131;28;20485;-64
2022/10/03 09:58:42;;;;;;;3.58;1.25;;;;;;;;;;5031397;28;20069;-64
2022/10/03 10:01:08;;;;;;;5.00;1.60;;;;;;;;;;5032118;28;20030;-63
2022/10/03 10:03:46;;;;;;;3.90;1.40;;;;;;;;;;5031576;28;20041;-63
2022/10/03 10:06:32;;;;;;;6.68;1.67;;;;;;;;;;5031511;28;20065;-65
2022/10/03 10:08:58;;;;;;;4.38;1.60;;;;;;;;;;5031782;28;20544;-63
2022/10/03 10:11:24;;;;;;;5.88;1.60;;;;;;;;;;5031456;28;20030;-70
2022/10/03 10:14:06;;;;;;;6.47;1.50;;;;;;;;;;5031247;28;20033;-66
2022/10/03 10:16:45;;;;;;;11.52;3.58;;;;;;;;;;5031715;28;20049;-62
2022/10/03 10:19:30;;;;;;;4.50;1.60;;;;;;;;;;5031804;28;20026;-63
2022/10/03 10:22:15;;;;;;;6.47;1.50;;;;;;;;;;5031505;28;20392;-62
2022/10/03 10:24:51;;;;;;;4.80;1.08;;;;;;;;;;5031665;28;20481;-62
2022/10/03 10:27:50;;;;;;;4.45;1.50;;;;;;;;;;5031459;28;20480;-63
2022/10/03 10:30:20;;;;;;;4.80;1.10;;;;;;;;;;5009370;28;20045;-69
2022/10/03 10:32:54;;;;;;;4.65;1.70;;;;;;;;;;5007319;28;20120;-64
2022/10/03 10:35:29;;;;;;;7.97;1.70;;;;;;;;;;5007801;28;20041;-62
2022/10/03 10:38:14;;;;;;;8.52;1.60;;;;;;;;;;5007525;28;20029;-63
2022/10/03 10:40:59;;;;;;;10.75;2.28;;;;;;;;;;5007156;28;20555;-64
2022/10/03 10:43:30;;;;;;;8.23;2.28;;;;;;;;;;5005055;28;20025;-62
2022/10/03 10:46:09;;;;;;;12.27;2.15;;;;;;;;;;5008111;28;20037;-62
2022/10/03 10:48:38;;;;;;;11.05;1.80;;;;;;;;;;5007803;28;20134;-67
2022/10/03 10:51:07;;;;;;;9.38;2.28;;;;;;;;;;5007434;28;20069;-63
2022/10/03 10:53:48;;;;;;;8.75;1.45;;;;;;;;;;5007447;28;20080;-63
2022/10/03 10:56:15;;;;;;;7.43;1.73;;;;;;;;;;5008621;28;20029;-64
2022/10/03 10:58:52;;;;;;;8.60;1.58;;;;;;;;;;5008944;28;20514;-65
2022/10/03 11:01:26;;;;;;;5.10;1.30;;;;;;;;;;5007903;28;20038;-66
2022/10/03 11:03:52;;;;;;;5.10;1.48;;;;;;;;;;5007386;28;20433;-63
2022/10/03 11:06:37;;;;;;;7.70;1.63;;;;;;;;;;5022877;28;20039;-60
2022/10/03 11:09:03;;;;;;;4.40;1.20;;;;;;;;;;5024108;28;20091;-68
2022/10/03 11:11:48;;;;;;;9.23;1.38;;;;;;;;;;5024724;28;20030;-69
2022/10/03 11:14:27;;;;;;;4.93;1.00;;;;;;;;;;5029993;28;20045;-67
2022/10/03 11:16:53;;;;;;;6.82;1.38;;;;;;;;;;5022869;28;20105;-63
2022/10/03 11:19:40;;;;;;;2.30;1.20;;;;;;;;;;5016768;28;20098;-64
2022/10/03 11:22:09;;;;;;;7.13;1.48;;;;;;;;;;5025801;28;20026;-68
2022/10/03 11:24:35;;;;;;;19.88;8.27;;;;;;;;;;5030395;28;20108;-63
2022/10/03 11:27:16;;;;;;;28.42;11.63;;;;;;;;;;5030540;28;20105;-64
2022/10/03 11:29:45;;;;;;;85.75;30.70;;;;;;;;;;5030735;28;20026;-63
2022/10/03 11:32:23;;;;;;;69.63;24.42;;;;;;;;;;5029987;28;20109;-64
2022/10/03 11:34:56;;;;;;;43.88;16.75;;;;;;;;;;5029356;28;20045;-64
2022/10/03 11:37:41;;;;;;;4.07;1.30;;;;;;;;;;5029235;28;20017;-67
2022/10/03 11:40:07;;;;;;;9.68;3.03;;;;;;;;;;5022780;28;20061;-63
2022/10/03 11:42:52;;;;;;;4.43;1.58;;;;;;;;;;5019920;28;20021;-64
2022/10/03 11:45:36;;;;;;;4.10;1.48;;;;;;;;;;5029490;28;20393;-63
2022/10/03 11:48:02;;;;;;;12.65;4.70;;;;;;;;;;5029704;28;20373;-63
2022/10/03 11:50:31;;;;;;;9.68;2.45;;;;;;;;;;5018301;28;20485;-63
2022/10/03 11:53:10;;;;;;;6.47;2.03;;;;;;;;;;5018801;28;20474;-64
2022/10/03 11:55:40;;;;;;;6.15;2.85;;;;;;;;;;5025396;28;20018;-64
2022/10/03 11:58:13;;;;;;;7.13;2.45;;;;;;;;;;5029829;28;20021;-63
2022/10/03 12:00:41;;;;;;;9.38;3.20;;;;;;;;;;5030036;28;20026;-71
2022/10/03 12:03:17;;;;;;;4.95;1.00;;;;;;;;;;5029697;28;20041;-64
2022/10/03 12:05:51;;;;;;;12.68;5.65;;;;;;;;;;5029739;28;20040;-64
2022/10/03 12:11:10;;;;;;;7.95;3.97;;;;;;;;;;5026668;28;20099;-64
2022/10/03 12:13:36;;;;;;;5.00;2.70;;;;;;;;;;5017523;28;20038;-64
2022/10/03 12:16:02;;;;;;;6.78;2.28;;;;;;;;;;5028858;28;20085;-65
2022/10/03 12:18:48;;;;;;;4.28;1.25;;;;;;;;;;5029684;28;20053;-65
2022/10/03 12:21:28;;;;;;;7.53;0.75;;;;;;;;;;5032982;28;20493;-66
2022/10/03 12:24:01;;;;;;;3.78;1.58;;;;;;;;;;5033243;28;20384;-65
2022/10/03 12:27:03;;;;;;;4.43;1.42;;;;;;;;;;5021403;28;20495;-65
2022/10/03 12:29:31;;;;;;;7.13;1.38;;;;;;;;;;5011641;28;20130;-73
2022/10/03 12:32:04;;;;;;;5.20;1.20;;;;;;;;;;5024020;28;20040;-65
2022/10/03 12:34:33;;;;;;;2.22;0.82;;;;;;;;;;5031117;28;20068;-65
2022/10/03 12:36:59;;;;;;;4.57;1.40;;;;;;;;;;5020137;28;20042;-67
2022/10/03 12:39:43;;;;;;;7.85;1.40;;;;;;;;;;5011698;28;20117;-69
2022/10/03 12:42:15;;;;;;;3.78;0.95;;;;;;;;;;5011018;28;20401;-68
2022/10/03 12:44:59;;;;;;;5.57;1.05;;;;;;;;;;5009250;28;20580;-63
2022/10/03 12:47:31;;;;;;;3.50;1.02;;;;;;;;;;5010306;28;20219;-63
2022/10/03 12:50:00;;;;;;;4.25;1.25;;;;;;;;;;5010442;28;20033;-68
2022/10/03 12:52:30;;;;;;;8.85;1.00;;;;;;;;;;5011022;28;20057;-68
2022/10/03 12:54:59;;;;;;;3.55;1.05;;;;;;;;;;5011130;28;20043;-69
2022/10/03 12:57:28;;;;;;;2.67;0.85;;;;;;;;;;5011132;28;20404;-64
2022/10/03 13:00:06;;;;;;;3.72;1.10;;;;;;;;;;5011410;28;20092;-64
2022/10/03 13:03:04;;;;;;;4.90;1.15;;;;;;;;;;5011129;28;20497;-65
2022/10/03 13:05:36;;;;;;;3.38;0.90;;;;;;;;;;5030424;28;20041;-63
2022/10/03 13:08:26;;;;;;;3.53;1.00;;;;;;;;;;5030651;28;20041;-62
2022/10/03 13:11:11;;;;;;;3.58;1.15;;;;;;;;;;5030962;28;20026;-63
2022/10/03 13:13:37;;;;;;;3.65;0.70;;;;;;;;;;5030302;28;20041;-62
2022/10/03 13:16:12;;;;;;;6.28;1.10;;;;;;;;;;5030410;28;20040;-64
2022/10/03 13:18:38;;;;;;;4.05;1.10;;;;;;;;;;5030238;28;20642;-63
2022/10/03 13:21:08;;;;;;;3.72;1.17;;;;;;;;;;5029504;28;20500;-65
2022/10/03 13:23:40;;;;;;;3.53;1.00;;;;;;;;;;5030427;28;20067;-63
2022/10/03 13:26:14;;;;;;;4.50;1.30;;;;;;;;;;5030250;28;20148;-65
2022/10/03 13:28:49;;;;;;;2.10;0.90;;;;;;;;;;5029953;28;20116;-64
2022/10/03 13:31:22;;;;;;;3.75;0.93;;;;;;;;;;5030126;28;20033;-63
2022/10/03 13:33:53;;;;;;;3.95;0.80;;;;;;;;;;5030139;28;20060;-64
2022/10/03 13:36:28;;;;;;;7.55;1.30;;;;;;;;;;5029816;28;20021;-64
2022/10/03 13:39:01;;;;;;;4.40;1.20;;;;;;;;;;5029737;28;20500;-64
2022/10/03 13:41:27;;;;;;;4.50;1.23;;;;;;;;;;5018535;28;20052;-68
2022/10/03 13:43:59;;;;;;;6.20;1.65;;;;;;;;;;5012354;28;20034;-64
2022/10/03 13:46:52;;;;;;;5.47;1.63;;;;;;;;;;5012701;28;20072;-63
2022/10/03 13:49:39;;;;;;;7.60;1.23;;;;;;;;;;5029382;28;20037;-67
2022/10/03 13:52:06;;;;;;;4.68;1.10;;;;;;;;;;4990311;28;20041;-61
2022/10/03 13:54:42;;;;;;;5.15;1.10;;;;;;;;;;4990051;28;20560;-62
2022/10/03 13:57:15;;;;;;;6.07;1.10;;;;;;;;;;4990529;28;20045;-63
2022/10/03 13:59:41;;;;;;;;;;;;;;;;;;4990830;28;20042;-61
2022/10/03 14:02:09;;;;;;;5.18;1.00;;;;;;;;;;4990759;28;19912;-63
2022/10/03 14:04:41;;;;;;;6.15;1.67;;;;;;;;;;4989641;28;20054;-64
2022/10/03 14:07:30;;;;;;;5.20;0.90;;;;;;;;;;4990494;28;20141;-66
2022/10/03 14:10:05;;;;;;;2.88;0.93;;;;;;;;;;4950801;29;20131;-63
2022/10/03 14:12:46;;;;;;;3.60;1.00;;;;;;;;;;4950982;29;20062;-63
2022/10/03 14:15:28;;;;;;;7.00;1.40;;;;;;;;;;4950763;29;20081;-62
2022/10/03 14:18:00;;;;;;;7.43;1.23;;;;;;;;;;4950403;29;20027;-65
2022/10/03 14:20:26;;;;;;;6.15;1.02;;;;;;;;;;4950109;29;20483;-64
2022/10/03 14:22:56;;;;;;;3.42;1.10;;;;;;;;;;4950824;29;20430;-62
2022/10/03 14:25:33;;;;;;;4.03;1.10;;;;;;;;;;4946820;29;20039;-64
2022/10/03 14:28:07;;;;;;;7.68;1.25;;;;;;;;;;4931664;28;20044;-63
2022/10/03 14:30:46;;;;;;;3.42;0.85;;;;;;;;;;4970259;28;20474;-67
2022/10/03 14:33:15;;;;;;;4.10;1.02;;;;;;;;;;4969910;28;20090;-63
2022/10/03 14:35:54;;;;;;;4.00;0.80;;;;;;;;;;4970261;28;20102;-63
2022/10/03 14:38:20;;;;;;;1.50;0.77;;;;;;;;;;4970006;28;20042;-64
2022/10/03 14:40:47;;;;;;;5.38;0.95;;;;;;;;;;4986142;28;20462;-66
2022/10/03 14:43:51;;;;;;;4.13;1.50;;;;;;;;;;4988260;28;20065;-64
2022/10/03 14:46:19;;;;;;;4.75;1.30;;;;;;;;;;4939177;28;20045;-63
2022/10/03 14:48:48;;;;;;;2.97;1.13;;;;;;;;;;4969486;28;20041;-62
2022/10/03 14:51:19;;;;;;;4.15;1.00;;;;;;;;;;4969782;28;20538;-65
2022/10/03 14:53:47;;;;;;;3.65;1.30;;;;;;;;;;4969811;28;20050;-65
2022/10/03 14:56:16;;;;;;;5.18;1.13;;;;;;;;;;4969163;28;20035;-68
2022/10/03 14:58:46;;;;;;;2.83;1.30;;;;;;;;;;4966347;28;20513;-63
2022/10/03 15:01:14;;;;;;;5.10;1.30;;;;;;;;;;4970011;28;20030;-64
2022/10/03 15:03:51;;;;;;;6.10;1.20;;;;;;;;;;4968619;28;20093;-63
2022/10/03 15:06:19;;;;;;;3.38;1.40;;;;;;;;;;4968729;28;20398;-61
2022/10/03 15:08:48;;;;;;;9.23;1.30;;;;;;;;;;4969143;28;20033;-63
2022/10/03 15:11:15;;;;;;;5.88;1.30;;;;;;;;;;4967745;28;20545;-64
2022/10/03 15:13:46;;;;;;;5.03;1.10;;;;;;;;;;4968666;28;20042;-64
2022/10/03 15:16:16;;;;;;;3.95;1.10;;;;;;;;;;4976105;28;20029;-64
2022/10/03 15:18:50;;;;;;;9.50;1.60;;;;;;;;;;5030161;28;20490;-64
2022/10/03 15:21:17;;;;;;;5.30;1.23;;;;;;;;;;5027907;28;20059;-62
2022/10/03 15:23:45;;;;;;;4.97;1.33;;;;;;;;;;5030226;28;20030;-63
2022/10/03 15:26:15;;;;;;;6.07;1.65;;;;;;;;;;5030660;28;20037;-62
2022/10/03 15:28:46;;;;;;;6.65;1.13;;;;;;;;;;5030486;28;20037;-63
2022/10/03 15:31:17;;;;;;;3.57;0.90;;;;;;;;;;5030725;28;20047;-64
2022/10/03 15:33:44;;;;;;;2.42;0.77;;;;;;;;;;5029976;28;20572;-64
2022/10/03 15:36:11;;;;;;;3.90;0.88;;;;;;;;;;5030659;28;20385;-63
2022/10/03 15:38:39;;;;;;;6.10;1.40;;;;;;;;;;5030244;28;20021;-63
2022/10/03 15:41:20;;;;;;;9.73;3.17;;;;;;;;;;5030168;28;20013;-64
2022/10/03 15:43:52;;;;;;;7.93;2.90;;;;;;;;;;5027502;28;20101;-70
2022/10/03 15:46:29;;;;;;;4.35;1.38;;;;;;;;;;5029959;28;20064;-63
2022/10/03 15:48:55;;;;;;;5.55;1.38;;;;;;;;;;5029408;28;20029;-67
2022/10/03 15:51:25;;;;;;;2.53;0.80;;;;;;;;;;5029716;28;20017;-63
2022/10/03 15:53:52;;;;;;;8.48;2.33;;;;;;;;;;5028445;28;20040;-64
2022/10/03 15:56:22;;;;;;;6.28;2.20;;;;;;;;;;5023021;28;20022;-64
2022/10/03 15:58:58;;;;;;;7.10;3.13;;;;;;;;;;5021790;28;20049;-63
2022/10/03 16:01:24;;;;;;;9.18;3.90;;;;;;;;;;5031374;28;20450;-64
2022/10/03 16:03:55;;;;;;;6.88;2.45;;;;;;;;;;5023029;28;20058;-65
2022/10/03 16:06:25;;;;;;;13.23;4.85;;;;;;;;;;5034000;28;20030;-61
2022/10/03 16:08:57;;;;;;;11.68;4.97;;;;;;;;;;5034079;28;20484;-64
2022/10/03 16:11:46;;;;;;;11.23;4.78;;;;;;;;;;5033950;28;20101;-63
2022/10/03 16:14:24;;;;;;;9.20;4.13;;;;;;;;;;4991871;28;20050;-63
2022/10/03 16:16:53;;;;;;;7.53;2.63;;;;;;;;;;4992189;28;20043;-67
2022/10/03 16:19:21;;;;;;;6.97;2.53;;;;;;;;;;4991818;28;20097;-63
2022/10/03 16:21:51;;;;;;;4.80;1.75;;;;;;;;;;4992189;28;20433;-62
2022/10/03 16:24:20;;;;;;;6.32;2.10;;;;;;;;;;4991487;28;20160;-63
2022/10/03 16:26:55;;;;;;;8.52;2.80;;;;;;;;;;4991902;28;20540;-64
2022/10/03 16:29:21;;;;;;;6.57;1.17;;;;;;;;;;4991659;28;20533;-65
2022/10/03 16:31:55;;;;;;;6.47;1.83;;;;;;;;;;4991589;28;20043;-65
2022/10/03 16:34:24;;;;;;;4.95;1.90;;;;;;;;;;4991271;28;20066;-66
2022/10/03 16:36:50;;;;;;;7.75;1.85;;;;;;;;;;4991785;28;20042;-65
2022/10/03 16:39:27;;;;;;;3.97;0.88;;;;;;;;;;4991796;28;20042;-64
2022/10/03 16:41:54;;;;;;;4.15;1.00;;;;;;;;;;4991743;28;20026;-66
2022/10/03 16:44:25;;;;;;;3.03;0.88;;;;;;;;;;4991385;28;20034;-64
2022/10/03 16:46:53;;;;;;;3.38;1.10;;;;;;;;;;4991503;28;20101;-64
2022/10/03 16:52:33;;;;;;;2.75;0.90;;;;;;;;;;5017587;28;20045;-64
2022/10/03 16:55:19;;;;;;;2.55;1.00;;;;;;;;;;5033453;28;20465;-65
2022/10/03 16:57:49;;;;;;;6.03;1.40;;;;;;;;;;5033304;28;20036;-65
2022/10/03 17:00:18;;;;;;;4.93;1.17;;;;;;;;;;5033249;28;20033;-64
2022/10/03 17:02:45;;;;;;;2.85;1.10;;;;;;;;;;5032452;28;20155;-63
2022/10/03 17:05:13;;;;;;;4.95;1.17;;;;;;;;;;5031800;28;20033;-64
2022/10/03 17:07:43;;;;;;;5.03;1.10;;;;;;;;;;5033129;28;20025;-64
2022/10/03 17:10:21;;;;;;;2.10;0.90;;;;;;;;;;5032908;28;20021;-64
2022/10/03 17:12:51;;;;;;;8.80;1.60;;;;;;;;;;5033090;28;20061;-65
2022/10/03 17:15:21;;;;;;;4.38;1.00;;;;;;;;;;5032779;28;20031;-64
2022/10/03 17:17:58;;;;;;;3.70;1.25;;;;;;;;;;5032990;28;20505;-68
2022/10/03 17:20:37;;;;;;;3.95;1.10;;;;;;;;;;5032848;28;20033;-65
2022/10/03 17:23:06;;;;;;;4.45;0.90;;;;;;;;;;5032839;28;20025;-66
2022/10/03 17:25:32;;;;;;;6.85;1.15;;;;;;;;;;5032395;28;20029;-65
2022/10/03 17:27:59;;;;;;;4.85;1.13;;;;;;;;;;5032655;28;20096;-67
2022/10/03 17:30:43;;;;;;;3.05;1.00;;;;;;;;;;5032605;28;20025;-65
2022/10/03 17:33:32;;;;;;;2.92;1.30;;;;;;;;;;5031619;28;20705;-66
2022/10/03 17:35:58;;;;;;;5.65;1.40;;;;;;;;;;5009139;28;20060;-65
2022/10/03 17:38:31;;;;;;;5.75;1.20;;;;;;;;;;5008708;28;20034;-64
2022/10/03 17:41:12;;;;;;;5.40;1.40;;;;;;;;;;5009957;28;20584;-65
2022/10/03 17:43:56;;;;;;;2.63;1.25;;;;;;;;;;5009980;28;20057;-66
2022/10/03 17:46:43;;;;;;;3.92;1.42;;;;;;;;;;5008728;28;20157;-64
2022/10/03 17:49:12;;;;;;;3.92;1.35;;;;;;;;;;5009243;28;20029;-64
2022/10/03 17:51:40;;;;;;;2.53;1.30;;;;;;;;;;5009156;28;20050;-71
2022/10/03 17:54:11;;;;;;;5.07;1.40;;;;;;;;;;5008866;28;20598;-64
2022/10/03 17:56:41;;;;;;;4.60;1.65;;;;;;;;;;5009490;28;20037;-64
2022/10/03 17:59:12;;;;;;;4.38;2.08;;;;;;;;;;5009253;28;20030;-68
2022/10/03 18:01:47;;;;;;;9.18;2.00;;;;;;;;;;5009794;28;20041;-63
2022/10/03 18:04:18;;;;;;;6.75;1.83;;;;;;;;;;5009635;28;20042;-65
2022/10/03 18:06:45;;;;;;;5.25;1.85;;;;;;;;;;5009491;28;20121;-63
2022/10/03 18:09:14;;;;;;;4.90;1.83;;;;;;;;;;5009225;28;20029;-65
2022/10/03 18:11:41;;;;;;;9.05;1.98;;;;;;;;;;5010039;28;20034;-66
2022/10/03 18:14:19;;;;;;;5.18;2.00;;;;;;;;;;5031259;28;20061;-66
2022/10/03 18:16:47;;;;;;;4.65;1.85;;;;;;;;;;5031805;28;20043;-68
2022/10/03 18:19:21;;;;;;;5.35;2.00;;;;;;;;;;5031410;28;20385;-67
2022/10/03 18:22:06;;;;;;;4.00;1.52;;;;;;;;;;5031055;28;20477;-64
2022/10/03 18:24:47;;;;;;;7.00;1.92;;;;;;;;;;5031417;28;20071;-66
2022/10/03 18:27:32;;;;;;;4.13;1.63;;;;;;;;;;5031655;28;20108;-65
2022/10/03 18:30:04;;;;;;;5.05;1.77;;;;;;;;;;5030924;28;20037;-63
2022/10/03 18:32:32;;;;;;;4.32;1.60;;;;;;;;;;5031261;28;20075;-64
2022/10/03 18:35:18;;;;;;;4.57;2.03;;;;;;;;;;5031157;28;20033;-64
2022/10/03 18:37:44;;;;;;;6.50;1.67;;;;;;;;;;5031240;28;20021;-64
2022/10/03 18:40:23;;;;;;;4.38;1.95;;;;;;;;;;5030773;28;20381;-70
2022/10/03 18:42:50;;;;;;;6.90;2.22;;;;;;;;;;5030948;28;20024;-66
2022/10/03 18:45:22;;;;;;;5.65;2.63;;;;;;;;;;5030993;28;20132;-65
2022/10/03 18:47:48;;;;;;;;;;;;;;;;;;5031218;28;20165;-63
2022/10/03 18:50:20;;;;;;;8.48;2.83;;;;;;;;;;5031214;28;20431;-68
2022/10/03 18:52:47;;;;;;;9.23;3.40;;;;;;;;;;5030909;28;20075;-65
2022/10/03 18:55:21;;;;;;;7.55;3.42;;;;;;;;;;5030942;28;20580;-66
2022/10/03 18:57:59;;;;;;;7.72;2.95;;;;;;;;;;5031284;28;20128;-67
2022/10/03 19:00:26;;;;;;;6.47;2.25;;;;;;;;;;5030586;28;20026;-65
2022/10/03 19:02:54;;;;;;;4.82;2.17;;;;;;;;;;5030608;28;20037;-69
2022/10/03 19:05:35;;;;;;;4.30;1.90;;;;;;;;;;5030842;28;20116;-70
2022/10/03 19:08:09;;;;;;;6.28;1.90;;;;;;;;;;5031072;28;20041;-65
2022/10/03 19:10:48;;;;;;;5.43;1.90;;;;;;;;;;5030986;28;20025;-65
2022/10/03 19:13:17;;;;;;;3.88;1.80;;;;;;;;;;5030767;28;20025;-63
2022/10/03 19:16:02;;;;;;;9.38;2.42;;;;;;;;;;5030626;28;20026;-68
2022/10/03 19:18:34;;;;;;;5.85;2.47;;;;;;;;;;5030591;28;20416;-65
2022/10/03 19:21:00;;;;;;;;;;;;;;;;;;5031047;28;20018;-65
2022/10/03 19:23:26;;;;;;;5.97;2.00;;;;;;;;;;5030379;28;19909;-65
2022/10/03 19:25:55;;;;;;;6.20;2.17;;;;;;;;;;5030435;28;20021;-68
2022/10/03 19:28:21;;;;;;;5.53;1.95;;;;;;;;;;5030432;28;20033;-65
2022/10/03 19:30:56;;;;;;;5.70;2.08;;;;;;;;;;5030578;28;20029;-63
2022/10/03 19:33:24;;;;;;;4.57;1.80;;;;;;;;;;5030479;28;20053;-66
2022/10/03 19:35:51;;;;;;;4.88;1.80;;;;;;;;;;5030483;28;20029;-63
2022/10/03 19:38:26;;;;;;;4.93;1.92;;;;;;;;;;5031131;28;20361;-65
2022/10/03 19:40:52;;;;;;;4.03;1.73;;;;;;;;;;5030673;28;20025;-66
2022/10/03 19:43:18;;;;;;;5.53;1.73;;;;;;;;;;5030827;28;20021;-69
2022/10/03 19:45:49;;;;;;;5.30;1.83;;;;;;;;;;5030472;28;20504;-64
2022/10/03 19:48:17;;;;;;;7.20;1.80;;;;;;;;;;5030766;28;20040;-63
2022/10/03 19:50:43;;;;;;;4.40;1.67;;;;;;;;;;5030518;28;20365;-64
2022/10/03 19:53:11;;;;;;;5.13;1.75;;;;;;;;;;5030099;28;20030;-67
2022/10/03 19:55:39;;;;;;;6.68;2.03;;;;;;;;;;5027704;28;20037;-66
2022/10/03 19:58:08;;;;;;;8.02;2.15;;;;;;;;;;5030000;28;20469;-57
2022/10/03 20:00:38;;;;;;;5.80;1.80;;;;;;;;;;5030268;28;20042;-73
2022/10/03 20:03:14;;;;;;;5.32;1.92;;;;;;;;;;5030554;28;20083;-62
2022/10/03 20:05:53;;;;;;;6.30;1.92;;;;;;;;;;5030965;28;20436;-72
2022/10/03 20:08:22;;;;;;;4.90;1.73;;;;;;;;;;5030633;28;20041;-57
2022/10/03 20:11:06;;;;;;;5.93;1.92;;;;;;;;;;5030434;28;20060;-57
2022/10/03 20:13:33;;;;;;;6.03;2.25;;;;;;;;;;5030719;28;20467;-58
2022/10/03 20:15:59;;;;;;;5.47;1.70;;;;;;;;;;5030529;28;20036;-58
2022/10/03 20:18:29;;;;;;;6.53;2.08;;;;;;;;;;5030191;28;20057;-59
2022/10/03 20:20:57;;;;;;;5.25;2.08;;;;;;;;;;5030001;28;20049;-58
2022/10/03 20:23:24;;;;;;;4.10;1.83;;;;;;;;;;5029742;28;20029;-59
2022/10/03 20:25:53;;;;;;;6.90;1.83;;;;;;;;;;5029946;28;20057;-57
2022/10/03 20:28:22;;;;;;;11.38;2.38;;;;;;;;;;5030093;28;20487;-59
2022/10/03 20:30:52;;;;;;;6.43;1.85;;;;;;;;;;5027959;28;20444;-59
2022/10/03 20:33:27;;;;;;;7.30;1.90;;;;;;;;;;5029173;28;20103;-56
2022/10/03 20:35:59;;;;;;;4.68;1.80;;;;;;;;;;5029575;28;20064;-58
2022/10/03 20:38:30;;;;;;;5.25;1.65;;;;;;;;;;5024959;28;20392;-65
2022/10/03 20:41:07;;;;;;;6.50;1.85;;;;;;;;;;5029625;28;20033;-59
2022/10/03 20:43:39;;;;;;;4.45;1.58;;;;;;;;;;5032859;28;20440;-59
2022/10/03 20:46:14;;;;;;;5.70;1.67;;;;;;;;;;5032873;28;20384;-59
2022/10/03 20:48:48;;;;;;;4.15;1.60;;;;;;;;;;5033505;28;20029;-68
2022/10/03 20:51:23;;;;;;;5.50;1.83;;;;;;;;;;5033170;28;20021;-60
2022/10/03 20:53:53;;;;;;;3.03;1.42;;;;;;;;;;5033121;28;20047;-65
2022/10/03 20:56:22;;;;;;;3.22;1.50;;;;;;;;;;5032497;28;20428;-59
2022/10/03 20:58:53;;;;;;;5.63;1.85;;;;;;;;;;5033043;28;20432;-61
2022/10/03 21:01:22;;;;;;;5.45;2.00;;;;;;;;;;5031937;28;20021;-72
2022/10/03 21:03:48;;;;;;;5.43;1.80;;;;;;;;;;5032819;28;20087;-66
2022/10/03 21:06:19;;;;;;;4.38;1.70;;;;;;;;;;5033283;28;20034;-58
2022/10/03 21:08:46;;;;;;;6.43;1.98;;;;;;;;;;5032946;28;20036;-64
2022/10/03 21:11:15;;;;;;;4.53;1.70;;;;;;;;;;5032865;28;20524;-66
2022/10/03 21:13:48;;;;;;;4.78;2.20;;;;;;;;;;5032465;28;20049;-58
2022/10/03 21:16:34;;;;;;;5.70;2.03;;;;;;;;;;5030534;28;20025;-59
2022/10/03 21:19:01;;;;;;;6.88;2.00;;;;;;;;;;5032609;28;20535;-70
2022/10/03 21:21:38;;;;;;;4.35;1.73;;;;;;;;;;5032763;28;20034;-71
2022/10/03 21:24:16;;;;;;;5.20;1.67;;;;;;;;;;5032468;28;20108;-71
2022/10/03 21:26:44;;;;;;;7.90;2.22;;;;;;;;;;5032491;28;20033;-59
2022/10/03 21:29:29;;;;;;;3.33;1.40;;;;;;;;;;5032431;28;20105;-71
2022/10/03 21:32:04;;;;;;;7.38;1.90;;;;;;;;;;5032216;28;20025;-59
2022/10/03 21:34:41;;;;;;;4.93;1.90;;;;;;;;;;5031295;28;20505;-59
2022/10/03 21:37:07;;;;;;;5.15;2.60;;;;;;;;;;5032142;28;20029;-58
2022/10/03 21:39:52;;;;;;;5.40;2.50;;;;;;;;;;5031939;28;20025;-68
2022/10/03 21:42:26;;;;;;;3.80;2.05;;;;;;;;;;5028187;28;20033;-59
2022/10/03 21:45:11;;;;;;;7.38;1.98;;;;;;;;;;5032094;28;20100;-59
2022/10/03 21:47:43;;;;;;;5.32;1.73;;;;;;;;;;5012181;28;20117;-58
2022/10/03 21:50:17;;;;;;;7.53;4.15;;;;;;;;;;5012439;28;20033;-59
2022/10/03 21:52:50;;;;;;;9.98;2.47;;;;;;;;;;5012368;28;20347;-69
2022/10/03 21:55:34;;;;;;;4.90;2.22;;;;;;;;;;5011944;28;20448;-59
2022/10/03 21:58:01;;;;;;;4.57;2.00;;;;;;;;;;5031496;28;20072;-66
2022/10/03 22:00:46;;;;;;;5.22;1.90;;;;;;;;;;5030873;28;20025;-58
2022/10/03 22:03:12;;;;;;;3.60;1.80;;;;;;;;;;5031226;28;20484;-58
2022/10/03 22:05:44;;;;;;;6.35;2.00;;;;;;;;;;5031918;28;20025;-58
2022/10/03 22:08:29;;;;;;;5.93;1.85;;;;;;;;;;5031192;28;20028;-58
2022/10/03 22:11:07;;;;;;;5.43;1.70;;;;;;;;;;5031474;28;20034;-59
2022/10/03 22:13:36;;;;;;;6.05;2.10;;;;;;;;;;5031713;28;20041;-58
2022/10/03 22:16:02;;;;;;;6.25;1.92;;;;;;;;;;5032061;28;20033;-59
2022/10/03 22:18:31;;;;;;;5.40;1.92;;;;;;;;;;5029997;28;20035;-58
2022/10/03 22:20:57;;;;;;;5.03;1.70;;;;;;;;;;5031631;28;20491;-58
2022/10/03 22:23:45;;;;;;;5.38;2.28;;;;;;;;;;5031587;28;20060;-59
2022/10/03 22:26:17;;;;;;;4.10;1.70;;;;;;;;;;5031425;28;20037;-58
2022/10/03 22:28:56;;;;;;;6.18;1.88;;;;;;;;;;5031372;28;20021;-60
2022/10/03 22:31:28;;;;;;;4.65;1.77;;;;;;;;;;5031214;28;20041;-58
2022/10/03 22:34:03;;;;;;;6.25;1.83;;;;;;;;;;5031461;28;20114;-64
2022/10/03 22:36:33;;;;;;;4.28;1.63;;;;;;;;;;5031810;28;20109;-69
2022/10/03 22:38:59;;;;;;;7.72;1.60;;;;;;;;;;5030783;28;20029;-59
2022/10/03 22:41:27;;;;;;;8.73;3.60;;;;;;;;;;5028226;28;20037;-67
2022/10/03 22:43:54;;;;;;;6.72;2.92;;;;;;;;;;5025906;28;20017;-58
2022/10/03 22:46:29;;;;;;;7.80;2.50;;;;;;;;;;5025799;28;20566;-58
2022/10/03 22:48:59;;;;;;;6.38;1.83;;;;;;;;;;5029335;28;20397;-57
2022/10/03 22:51:26;;;;;;;5.82;1.77;;;;;;;;;;5031083;28;20112;-65
2022/10/03 22:53:56;;;;;;;6.88;1.80;;;;;;;;;;5030531;28;20108;-65
2022/10/03 22:56:41;;;;;;;5.10;2.60;;;;;;;;;;5031197;28;20053;-59
2022/10/03 22:59:12;;;;;;;5.50;2.40;;;;;;;;;;5031345;28;20800;-59
2022/10/03 23:01:43;;;;;;;3.60;1.83;;;;;;;;;;5030883;28;20025;-59
2022/10/03 23:04:12;;;;;;;4.38;1.73;;;;;;;;;;5030439;28;20045;-59